createdAt,value
2023-04-23T00:01:02.574Z,73.28
2023-04-23T00:03:33.415Z,71.53
2023-04-23T00:06:07.935Z,72.10
2023-04-23T00:08:36.913Z,81.82
2023-04-23T00:11:07.717Z,76.65
2023-04-23T00:13:36.385Z,73.68
2023-04-23T00:16:05.122Z,73.78
2023-04-23T00:18:33.515Z,69.88
2023-04-23T00:21:03.157Z,72.07
2023-04-23T00:23:31.457Z,77.70
2023-04-23T00:25:59.470Z,75.95
2023-04-23T00:28:27.720Z,78.90
2023-04-23T00:30:57.517Z,72.30
2023-04-23T00:33:28.745Z,75.30
2023-04-23T00:35:57.002Z,74.55
2023-04-23T00:38:27.184Z,74.75
2023-04-23T00:40:55.713Z,69.28
2023-04-23T00:43:24.339Z,72.20
2023-04-23T00:45:52.448Z,72.50
2023-04-23T00:48:20.786Z,68.75
2023-04-23T00:50:49.158Z,72.20
2023-04-23T00:53:17.409Z,76.05
2023-04-23T00:55:47.159Z,74.07
2023-04-23T00:58:15.420Z,73.82
2023-04-23T01:00:48.627Z,72.50
2023-04-23T01:05:47.456Z,73.93
2023-04-23T01:08:17.165Z,78.28
2023-04-23T01:10:48.414Z,72.57
2023-04-23T01:13:17.120Z,76.88
2023-04-23T01:15:46.364Z,73.82
2023-04-23T01:18:18.496Z,75.60
2023-04-23T01:20:46.837Z,70.80
2023-04-23T01:23:17.415Z,71.25
2023-04-23T01:25:45.936Z,70.20
2023-04-23T01:28:14.746Z,68.53
2023-04-23T01:30:45.027Z,68.57
2023-04-23T01:33:13.316Z,68.95
2023-04-23T01:35:42.587Z,66.38
2023-04-23T01:38:12.748Z,67.50
2023-04-23T01:40:42.834Z,65.30
2023-04-23T01:43:11.307Z,65.93
2023-04-23T01:45:39.671Z,68.20
2023-04-23T01:48:08.084Z,64.32
2023-04-23T01:50:36.665Z,64.65
2023-04-23T01:53:04.819Z,64.10
2023-04-23T01:55:35.522Z,63.17
2023-04-23T01:58:05.943Z,62.00
2023-04-23T02:00:34.301Z,61.10
2023-04-23T02:03:03.629Z,56.35
2023-04-23T02:05:35.087Z,58.15
2023-04-23T02:08:04.399Z,55.13
2023-04-23T02:10:35.884Z,55.03
2023-04-23T02:13:05.691Z,54.25
2023-04-23T02:15:34.302Z,54.85
2023-04-23T02:18:02.374Z,53.35
2023-04-23T02:20:30.507Z,54.55
2023-04-23T02:22:58.521Z,53.53
2023-04-23T02:25:27.675Z,50.80
2023-04-23T02:27:57.386Z,54.65
2023-04-23T02:30:27.322Z,52.83
2023-04-23T02:32:55.764Z,53.63
2023-04-23T02:35:24.284Z,53.10
2023-04-23T02:37:54.191Z,52.83
2023-04-23T02:40:22.688Z,53.20
2023-04-23T02:42:51.097Z,53.35
2023-04-23T02:45:19.366Z,53.10
2023-04-23T02:47:49.273Z,53.38
2023-04-23T02:50:17.516Z,53.42
2023-04-23T02:52:46.443Z,55.55
2023-04-23T02:55:14.832Z,55.83
2023-04-23T02:57:43.294Z,54.35
2023-04-23T03:00:12.781Z,53.80
2023-04-23T03:02:41.162Z,54.58
2023-04-23T03:05:11.640Z,55.47
2023-04-23T03:07:39.949Z,55.13
2023-04-23T03:10:09.318Z,55.92
2023-04-23T03:12:37.553Z,54.70
2023-04-23T03:15:06.969Z,54.42
2023-04-23T03:17:35.626Z,54.95
2023-04-23T03:20:04.192Z,53.50
2023-04-23T03:22:35.319Z,54.88
2023-04-23T03:25:03.962Z,54.55
2023-04-23T03:27:32.262Z,55.55
2023-04-23T03:30:00.602Z,55.42
2023-04-23T03:32:28.664Z,54.63
2023-04-23T03:34:57.184Z,56.20
2023-04-23T03:37:25.334Z,57.47
2023-04-23T03:39:55.489Z,54.35
2023-04-23T03:42:23.828Z,55.35
2023-04-23T03:44:52.100Z,54.97
2023-04-23T03:47:20.246Z,54.03
2023-04-23T03:49:48.362Z,57.72
2023-04-23T03:52:16.579Z,54.85
2023-04-23T03:54:44.870Z,55.65
2023-04-23T03:57:14.526Z,53.78
2023-04-23T03:59:45.924Z,54.50
2023-04-23T04:02:14.158Z,54.17
2023-04-23T04:04:46.225Z,55.28
2023-04-23T04:07:16.598Z,53.63
2023-04-23T04:09:45.051Z,54.85
2023-04-23T04:12:16.291Z,54.90
2023-04-23T04:14:44.716Z,54.42
2023-04-23T04:17:16.179Z,55.88
2023-04-23T04:19:45.482Z,55.90
2023-04-23T04:22:13.674Z,54.00
2023-04-23T04:24:42.412Z,54.13
2023-04-23T04:27:12.086Z,55.25
2023-04-23T04:29:44.793Z,52.90
2023-04-23T04:32:13.922Z,53.25
2023-04-23T04:34:42.555Z,54.15
2023-04-23T04:37:11.511Z,55.42
2023-04-23T04:39:40.051Z,54.00
2023-04-23T04:42:08.353Z,54.30
2023-04-23T04:44:37.760Z,53.90
2023-04-23T04:47:08.173Z,54.90
2023-04-23T04:49:37.925Z,53.90
2023-04-23T04:52:06.535Z,53.95
2023-04-23T04:54:34.773Z,53.67
2023-04-23T04:57:03.614Z,53.45
2023-04-23T04:59:36.217Z,52.35
2023-04-23T05:02:04.593Z,53.80
2023-04-23T05:04:34.406Z,53.05
2023-04-23T05:07:02.527Z,51.70
2023-04-23T05:09:30.757Z,53.67
2023-04-23T05:11:59.072Z,52.08
2023-04-23T05:14:30.137Z,53.30
2023-04-23T05:17:04.349Z,52.67
2023-04-23T05:19:33.908Z,54.10
2023-04-23T05:22:03.520Z,51.53
2023-04-23T05:24:31.865Z,52.67
2023-04-23T05:27:02.678Z,53.63
2023-04-23T05:29:30.980Z,52.63
2023-04-23T05:31:59.223Z,51.67
2023-04-23T05:34:27.279Z,52.08
2023-04-23T05:36:56.957Z,49.63
2023-04-23T05:39:25.050Z,48.80
2023-04-23T05:41:55.530Z,49.47
2023-04-23T05:44:23.583Z,50.40
2023-04-23T05:46:51.743Z,49.45
2023-04-23T05:49:19.931Z,48.42
2023-04-23T05:51:48.208Z,48.22
2023-04-23T05:54:17.747Z,47.88
2023-04-23T05:56:45.893Z,49.20
2023-04-23T05:59:14.017Z,47.53
2023-04-23T06:01:42.206Z,46.53
2023-04-23T06:04:10.683Z,46.85
2023-04-23T06:06:39.342Z,47.60
2023-04-23T06:09:08.518Z,46.85
2023-04-23T06:11:38.585Z,46.25
2023-04-23T06:14:06.909Z,46.33
2023-04-23T06:16:35.544Z,46.88
2023-04-23T06:19:04.484Z,46.97
2023-04-23T06:21:32.590Z,46.75
2023-04-23T06:24:00.886Z,47.85
2023-04-23T06:26:29.126Z,46.85
2023-04-23T06:28:58.828Z,47.28
2023-04-23T06:31:27.081Z,46.58
2023-04-23T06:33:57.022Z,46.72
2023-04-23T06:36:28.541Z,45.80
2023-04-23T06:38:56.912Z,46.08
2023-04-23T06:41:26.503Z,46.17
2023-04-23T06:43:56.398Z,46.20
2023-04-23T06:46:25.996Z,44.70
2023-04-23T06:48:54.217Z,46.88
2023-04-23T06:51:22.643Z,44.40
2023-04-23T06:53:51.430Z,44.92
2023-04-23T06:56:19.647Z,46.13
2023-04-23T06:58:48.181Z,45.13
2023-04-23T07:01:20.609Z,44.65
2023-04-23T07:03:51.713Z,44.20
2023-04-23T07:06:20.016Z,43.88
2023-04-23T07:08:48.666Z,44.10
2023-04-23T07:11:23.016Z,44.33
2023-04-23T07:13:51.200Z,43.75
2023-04-23T07:16:21.986Z,43.70
2023-04-23T07:18:52.363Z,43.58
2023-04-23T07:21:21.723Z,42.45
2023-04-23T07:23:50.066Z,42.00
2023-04-23T07:26:22.258Z,41.97
2023-04-23T07:28:52.549Z,41.80
2023-04-23T07:31:22.345Z,41.67
2023-04-23T07:33:52.060Z,41.53
2023-04-23T07:36:20.353Z,41.45
2023-04-23T07:38:48.693Z,40.42
2023-04-23T07:41:16.965Z,40.08
2023-04-23T07:43:45.234Z,40.67
2023-04-23T07:46:13.800Z,42.55
2023-04-23T07:48:42.019Z,40.92
2023-04-23T07:51:11.675Z,39.65
2023-04-23T07:53:40.005Z,41.88
2023-04-23T07:56:08.396Z,40.20
2023-04-23T07:58:36.644Z,40.42
2023-04-23T08:01:04.917Z,41.08
2023-04-23T08:03:33.280Z,41.70
2023-04-23T08:06:01.580Z,41.05
2023-04-23T08:08:31.088Z,40.13
2023-04-23T08:10:59.563Z,39.65
2023-04-23T08:13:27.709Z,40.30
2023-04-23T08:15:55.946Z,39.85
2023-04-23T08:18:24.062Z,38.92
2023-04-23T08:20:52.387Z,39.05
2023-04-23T08:23:20.793Z,39.05
2023-04-23T08:25:50.301Z,38.88
2023-04-23T08:28:19.798Z,39.80
2023-04-23T08:30:47.788Z,38.72
2023-04-23T08:33:16.173Z,39.58
2023-04-23T08:35:44.393Z,38.70
2023-04-23T08:38:12.436Z,39.15
2023-04-23T08:40:45.149Z,38.60
2023-04-23T08:43:17.756Z,39.25
2023-04-23T08:45:48.218Z,38.97
2023-04-23T08:48:16.773Z,39.67
2023-04-23T08:50:46.994Z,40.47
2023-04-23T08:53:19.944Z,39.92
2023-04-23T08:55:50.559Z,41.38
2023-04-23T08:58:21.338Z,40.50
2023-04-23T09:00:50.344Z,41.60
2023-04-23T09:03:19.227Z,41.92
2023-04-23T09:05:47.681Z,43.20
2023-04-23T09:08:15.855Z,45.08
2023-04-23T09:10:46.603Z,44.38
2023-04-23T09:13:15.017Z,44.42
2023-04-23T09:15:47.633Z,45.42
2023-04-23T09:18:15.748Z,47.13
2023-04-23T09:20:46.097Z,46.50
2023-04-23T09:23:16.408Z,47.25
2023-04-23T09:25:44.503Z,48.05
2023-04-23T09:28:14.283Z,45.58
2023-04-23T09:30:45.192Z,46.25
2023-04-23T09:33:15.093Z,47.03
2023-04-23T09:35:43.640Z,47.72
2023-04-23T09:38:11.831Z,47.88
2023-04-23T09:40:42.888Z,49.05
2023-04-23T09:43:12.429Z,46.80
2023-04-23T09:45:51.108Z,48.10
2023-04-23T09:48:22.525Z,48.88
2023-04-23T09:50:50.599Z,51.83
2023-04-23T09:53:20.900Z,51.15
2023-04-23T09:55:49.037Z,51.40
2023-04-23T09:58:17.479Z,52.30
2023-04-23T10:00:45.475Z,49.85
2023-04-23T10:03:13.719Z,52.00
2023-04-23T10:06:00.650Z,50.83
2023-04-23T10:08:29.802Z,46.45
2023-04-23T10:11:19.616Z,44.03
2023-04-23T10:13:48.514Z,39.08
2023-04-23T10:16:23.257Z,38.67
2023-04-23T10:18:56.947Z,35.13
2023-04-23T10:21:39.459Z,31.23
2023-04-23T10:24:12.129Z,31.52
2023-04-23T10:26:43.258Z,29.20
2023-04-23T10:29:17.266Z,18.58
2023-04-23T10:31:47.173Z,13.02
2023-04-23T10:34:16.836Z,12.10
2023-04-23T10:36:46.469Z,7.18
2023-04-23T10:39:24.101Z,7.70
2023-04-23T10:41:58.082Z,11.27
2023-04-23T10:44:56.526Z,8.52
2023-04-23T10:47:22.978Z,8.13
2023-04-23T10:49:51.713Z,6.97
2023-04-23T10:52:25.249Z,9.00
2023-04-23T10:55:03.359Z,11.82
2023-04-23T10:57:31.824Z,6.10
2023-04-23T11:00:04.726Z,8.32
2023-04-23T11:02:45.327Z,6.90
2023-04-23T11:05:17.378Z,11.10
2023-04-23T11:10:53.249Z,8.50
2023-04-23T11:13:25.982Z,8.02
2023-04-23T11:16:16.721Z,9.15
2023-04-23T11:19:04.029Z,8.88
2023-04-23T11:21:58.032Z,6.05
2023-04-23T11:24:28.995Z,9.40
2023-04-23T11:26:58.205Z,7.90
2023-04-23T11:29:27.312Z,4.88
2023-04-23T11:34:28.119Z,7.65
2023-04-23T11:36:57.994Z,7.90
2023-04-23T11:39:28.488Z,8.02
2023-04-23T11:42:03.538Z,7.60
2023-04-23T11:44:34.012Z,5.78
2023-04-23T11:47:05.135Z,5.93
2023-04-23T11:49:33.851Z,5.68
2023-04-23T11:52:02.825Z,6.88
2023-04-23T11:54:36.463Z,6.32
2023-04-23T11:57:05.975Z,5.55
2023-04-23T11:59:35.516Z,3.83
2023-04-23T12:02:06.682Z,8.00
2023-04-23T12:04:34.961Z,5.68
2023-04-23T12:07:23.429Z,5.35
2023-04-23T12:10:06.207Z,4.07
2023-04-23T12:12:35.710Z,4.57
2023-04-23T12:15:08.541Z,8.32
2023-04-23T12:17:36.775Z,6.57
2023-04-23T12:20:07.217Z,5.82
2023-04-23T12:22:35.420Z,7.80
2023-04-23T12:25:08.458Z,5.03
2023-04-23T12:27:41.083Z,5.60
2023-04-23T12:30:12.063Z,5.90
2023-04-23T12:32:42.997Z,6.97
2023-04-23T12:35:12.110Z,6.47
2023-04-23T12:37:41.594Z,5.63
2023-04-23T12:40:13.148Z,7.85
2023-04-23T12:42:41.270Z,9.27
2023-04-23T12:45:11.233Z,7.18
2023-04-23T12:47:39.623Z,4.43
2023-04-23T12:50:09.517Z,5.40
2023-04-23T12:52:38.291Z,6.28
2023-04-23T12:55:07.103Z,6.20
2023-04-23T12:57:36.796Z,2.65
2023-04-23T13:00:05.960Z,2.97
2023-04-23T13:02:34.502Z,7.00
2023-04-23T13:05:02.781Z,4.65
2023-04-23T13:07:31.121Z,6.05
2023-04-23T13:09:59.687Z,4.93
2023-04-23T13:12:27.968Z,5.55
2023-04-23T13:15:00.556Z,5.65
2023-04-23T13:17:28.759Z,5.53
2023-04-23T13:19:57.271Z,8.45
2023-04-23T13:22:28.645Z,4.43
2023-04-23T13:24:57.108Z,6.20
2023-04-23T13:27:26.956Z,7.32
2023-04-23T13:29:55.217Z,4.72
2023-04-23T13:32:27.476Z,7.53
2023-04-23T13:34:55.968Z,6.10
2023-04-23T13:37:24.681Z,8.65
2023-04-23T13:39:53.155Z,8.27
2023-04-23T13:42:21.424Z,8.77
2023-04-23T13:44:49.757Z,6.07
2023-04-23T13:47:18.014Z,8.23
2023-04-23T13:49:47.738Z,7.72
2023-04-23T13:52:15.951Z,8.98
2023-04-23T13:54:44.520Z,11.57
2023-04-23T13:57:12.670Z,9.90
2023-04-23T13:59:43.807Z,6.80
2023-04-23T14:02:12.334Z,7.93
2023-04-23T14:04:40.902Z,7.97
2023-04-23T14:07:10.545Z,9.50
2023-04-23T14:09:39.122Z,9.52
2023-04-23T14:12:08.135Z,8.50
2023-04-23T14:14:37.669Z,9.55
2023-04-23T14:17:05.870Z,10.10
2023-04-23T14:19:36.118Z,11.63
2023-04-23T14:22:04.638Z,8.05
2023-04-23T14:24:40.575Z,10.20
2023-04-23T14:27:08.647Z,11.60
2023-04-23T14:29:44.539Z,9.32
2023-04-23T14:32:12.898Z,8.88
2023-04-23T14:34:43.761Z,7.50
2023-04-23T14:37:12.446Z,10.07
2023-04-23T14:39:42.292Z,7.25
2023-04-23T14:42:10.668Z,14.85
2023-04-23T14:44:38.814Z,20.05
2023-04-23T14:47:08.298Z,28.95
2023-04-23T14:49:36.379Z,32.60
2023-04-23T14:52:04.939Z,36.00
2023-04-23T14:54:33.019Z,42.85
2023-04-23T14:57:02.932Z,44.75
2023-04-23T14:59:31.540Z,45.88
2023-04-23T15:02:01.049Z,41.42
2023-04-23T15:04:29.347Z,41.45
2023-04-23T15:06:59.482Z,39.70
2023-04-23T15:09:27.842Z,40.95
2023-04-23T15:11:56.122Z,44.42
2023-04-23T15:14:32.838Z,44.33
2023-04-23T15:17:01.264Z,46.00
2023-04-23T15:19:31.288Z,47.03
2023-04-23T15:21:59.494Z,46.58
2023-04-23T15:24:27.815Z,46.50
2023-04-23T15:26:58.231Z,47.60
2023-04-23T15:29:27.804Z,46.65
2023-04-23T15:31:58.229Z,49.55
2023-04-23T15:34:26.736Z,49.55
2023-04-23T15:36:54.818Z,51.60
2023-04-23T15:39:22.848Z,50.28
2023-04-23T15:41:53.758Z,48.13
2023-04-23T15:44:21.768Z,48.13
2023-04-23T15:46:51.368Z,49.28
2023-04-23T15:49:19.548Z,47.47
2023-04-23T15:51:47.951Z,46.40
2023-04-23T15:54:16.046Z,46.97
2023-04-23T15:56:44.209Z,46.40
2023-04-23T15:59:12.367Z,47.30
2023-04-23T16:01:42.840Z,47.00
2023-04-23T16:04:12.811Z,46.08
2023-04-23T16:06:40.975Z,45.78
2023-04-23T16:09:09.273Z,44.70
2023-04-23T16:11:37.717Z,45.75
2023-04-23T16:14:07.020Z,45.95
2023-04-23T16:16:35.424Z,46.00
2023-04-23T16:19:03.745Z,45.33
2023-04-23T16:21:33.807Z,45.30
2023-04-23T16:24:01.896Z,46.00
2023-04-23T16:26:30.527Z,45.60
2023-04-23T16:29:11.161Z,45.30
2023-04-23T16:31:40.050Z,44.80
2023-04-23T16:34:08.420Z,43.10
2023-04-23T16:36:38.350Z,44.00
2023-04-23T16:39:06.474Z,43.75
2023-04-23T16:41:34.697Z,47.38
2023-04-23T16:44:02.926Z,43.38
2023-04-23T16:46:31.826Z,42.63
2023-04-23T16:49:00.440Z,43.65
2023-04-23T16:51:29.899Z,43.65
2023-04-23T16:54:02.766Z,44.03
2023-04-23T16:56:31.012Z,44.42
2023-04-23T16:59:00.360Z,42.60
2023-04-23T17:01:28.599Z,44.17
2023-04-23T17:03:57.327Z,42.90
2023-04-23T17:06:28.221Z,42.22
2023-04-23T17:08:58.334Z,41.20
2023-04-23T17:11:28.786Z,41.60
2023-04-23T17:13:58.651Z,40.80
2023-04-23T17:16:27.946Z,41.78
2023-04-23T17:18:56.858Z,41.13
2023-04-23T17:21:26.031Z,40.53
2023-04-23T17:23:59.975Z,41.00
2023-04-23T17:26:29.502Z,40.28
2023-04-23T17:28:57.984Z,40.65
2023-04-23T17:31:26.620Z,40.80
2023-04-23T17:33:56.543Z,41.08
2023-04-23T17:36:24.844Z,41.30
2023-04-23T17:38:52.993Z,41.47
2023-04-23T17:41:22.926Z,41.22
2023-04-23T17:43:52.732Z,40.50
2023-04-23T17:46:21.107Z,39.83
2023-04-23T17:48:49.528Z,39.40
2023-04-23T17:51:19.081Z,38.88
2023-04-23T17:53:48.688Z,39.75
2023-04-23T17:56:17.165Z,38.97
2023-04-23T17:58:45.390Z,38.33
2023-04-23T18:01:15.885Z,40.25
2023-04-23T18:03:44.748Z,40.35
2023-04-23T18:06:13.589Z,40.95
2023-04-23T18:08:42.863Z,40.67
2023-04-23T18:11:11.300Z,40.35
2023-04-23T18:13:39.963Z,39.25
2023-04-23T18:16:08.129Z,39.53
2023-04-23T18:18:37.755Z,40.00
2023-04-23T18:21:06.162Z,39.95
2023-04-23T18:23:36.121Z,40.25
2023-04-23T18:26:04.996Z,39.53
2023-04-23T18:28:37.263Z,39.55
2023-04-23T18:31:07.735Z,39.35
2023-04-23T18:33:44.427Z,38.42
2023-04-23T18:36:22.480Z,39.35
2023-04-23T18:38:51.634Z,39.50
2023-04-23T18:41:19.907Z,38.53
2023-04-23T18:44:00.462Z,38.80
2023-04-23T18:46:30.890Z,37.95
2023-04-23T18:49:06.299Z,38.65
2023-04-23T18:51:39.098Z,37.60
2023-04-23T18:54:07.666Z,37.58
2023-04-23T18:56:35.999Z,36.55
2023-04-23T18:59:04.829Z,37.38
2023-04-23T19:01:33.022Z,36.10
2023-04-23T19:04:02.787Z,35.72
2023-04-23T19:06:31.329Z,34.50
2023-04-23T19:08:59.731Z,34.15
2023-04-23T19:11:35.354Z,33.75
2023-04-23T19:14:03.755Z,33.55
2023-04-23T19:16:32.262Z,33.65
2023-04-23T19:19:02.148Z,32.45
2023-04-23T19:21:30.666Z,32.85
2023-04-23T19:24:02.336Z,32.85
2023-04-23T19:26:30.716Z,32.55
2023-04-23T19:28:58.978Z,33.17
2023-04-23T19:31:31.691Z,32.63
2023-04-23T19:34:00.220Z,32.72
2023-04-23T19:36:30.162Z,32.42
2023-04-23T19:39:04.899Z,31.88
2023-04-23T19:41:33.283Z,32.10
2023-04-23T19:44:01.912Z,32.75
2023-04-23T19:46:30.448Z,32.25
2023-04-23T19:48:59.641Z,32.10
2023-04-23T19:51:35.549Z,32.33
2023-04-23T19:54:05.180Z,31.90
2023-04-23T19:56:33.429Z,31.55
2023-04-23T19:59:01.882Z,32.80
2023-04-23T20:01:32.307Z,32.55
2023-04-23T20:04:07.166Z,32.63
2023-04-23T20:06:36.734Z,33.08
2023-04-23T20:09:07.592Z,33.25
2023-04-23T20:11:36.392Z,33.90
2023-04-23T20:14:05.432Z,33.63
2023-04-23T20:16:34.486Z,33.67
2023-04-23T20:19:05.137Z,33.28
2023-04-23T20:21:33.363Z,33.63
2023-04-23T20:24:03.425Z,33.45
2023-04-23T20:26:31.843Z,33.53
2023-04-23T20:29:00.113Z,33.15
2023-04-23T20:31:31.051Z,32.58
2023-04-23T20:33:59.536Z,32.45
2023-04-23T20:36:33.333Z,32.42
2023-04-23T20:39:04.989Z,32.58
2023-04-23T20:41:36.818Z,33.47
2023-04-23T20:44:06.076Z,32.22
2023-04-23T20:46:34.199Z,33.13
2023-04-23T20:49:03.404Z,33.35
2023-04-23T20:51:36.911Z,34.00
2023-04-23T20:54:07.273Z,34.78
2023-04-23T20:56:35.374Z,33.80
2023-04-23T20:59:03.362Z,33.60
2023-04-23T21:01:31.552Z,34.35
2023-04-23T21:04:01.361Z,34.67
2023-04-23T21:06:31.437Z,34.58
2023-04-23T21:09:00.068Z,35.58
2023-04-23T21:11:31.194Z,36.05
2023-04-23T21:14:00.981Z,36.50
2023-04-23T21:16:29.193Z,36.15
2023-04-23T21:18:59.862Z,35.42
2023-04-23T21:21:30.174Z,35.05
2023-04-23T21:23:59.710Z,36.60
2023-04-23T21:26:32.759Z,36.47
2023-04-23T21:29:00.965Z,36.42
2023-04-23T21:31:43.288Z,38.22
2023-04-23T21:34:11.467Z,38.75
2023-04-23T21:36:41.703Z,37.63
2023-04-23T21:39:12.287Z,35.75
2023-04-23T21:41:42.985Z,33.22
2023-04-23T21:44:11.352Z,29.50
2023-04-23T21:46:39.539Z,28.60
2023-04-23T21:49:09.820Z,27.20
2023-04-23T21:51:38.662Z,26.45
2023-04-23T21:54:07.022Z,25.40
2023-04-23T21:56:35.608Z,24.92
2023-04-23T21:59:05.303Z,25.45
2023-04-23T22:01:38.800Z,25.02
2023-04-23T22:04:08.524Z,25.25
2023-04-23T22:06:36.730Z,24.63
2023-04-23T22:09:05.881Z,25.30
2023-04-23T22:11:34.689Z,24.95
2023-04-23T22:14:04.377Z,25.08
2023-04-23T22:16:34.240Z,25.15
2023-04-23T22:19:02.607Z,24.35
2023-04-23T22:21:31.238Z,24.20
2023-04-23T22:23:59.441Z,24.02
2023-04-23T22:26:27.598Z,23.92
2023-04-23T22:28:56.429Z,23.92
2023-04-23T22:31:26.353Z,23.20
2023-04-23T22:33:54.588Z,23.00
2023-04-23T22:36:23.118Z,23.15
2023-04-23T22:38:51.333Z,23.42
2023-04-23T22:41:19.409Z,22.77
2023-04-23T22:43:48.217Z,22.50
2023-04-23T22:46:16.466Z,22.73
2023-04-23T22:48:47.223Z,22.63
2023-04-23T22:51:15.773Z,22.75
2023-04-23T22:53:43.897Z,22.33
2023-04-23T22:56:12.072Z,22.52
2023-04-23T22:58:40.512Z,22.50
2023-04-23T23:01:08.569Z,22.90
2023-04-23T23:03:36.919Z,22.73
2023-04-23T23:06:07.021Z,22.65
2023-04-23T23:08:35.196Z,22.20
2023-04-23T23:11:03.523Z,22.38
2023-04-23T23:13:32.279Z,22.45
2023-04-23T23:16:02.397Z,22.75
2023-04-23T23:18:30.457Z,22.52
2023-04-23T23:20:58.708Z,23.55
2023-04-23T23:23:28.233Z,24.00
2023-04-23T23:26:00.051Z,24.60
2023-04-23T23:28:28.276Z,24.48
2023-04-23T23:30:57.923Z,23.67
2023-04-23T23:33:26.065Z,23.63
2023-04-23T23:35:54.205Z,23.65
2023-04-23T23:38:22.296Z,23.70
2023-04-23T23:40:51.760Z,23.35
2023-04-23T23:43:19.933Z,23.38
2023-04-23T23:45:48.015Z,23.35
2023-04-23T23:48:19.139Z,23.20
2023-04-23T23:50:47.235Z,22.70
2023-04-23T23:53:15.685Z,23.48
2023-04-23T23:55:43.919Z,22.98
2023-04-23T23:58:13.833Z,23.92
